Thursday, May 28, 2015, 5:58 PM EDT

KPOU, Poughkeepsie Dutchess Cty

Location: Wappingers Falls, NY, United States Lat: 41.633
Local Time: 5:58 PM EDT (21:58 GMT) Lon: -73.883
Time Zone: US/Eastern Elev: 167 ft

Show me the last for .
Show Decoded

2015-05-28 16:53 METAR KPOU 282053Z 29013G20KT 10SM FEW050 31/14 A3009 RMK AO2 LTG DSNT E AND SE
                 SLP184 T03060139 55001 $ =
2015-05-28 15:53 METAR KPOU 281953Z 26014G20KT 10SM FEW055 31/16 A3008 =
2015-05-28 15:07 METAR KPOU 281907Z 22008KT 10SM TS FEW050 SCT065 BKN110 29/19 A3009 RMK AO2 LTG
                 DSNT SE TSE1857B01 T02890189 $ =
2015-05-28 15:00 METAR KPOU 281900Z 24008KT 10SM SCT060 SCT110 29/19 A3009 RMK AO2 LTG DSNT SE
                 TSE1857 T02890189 $ =
2015-05-28 14:53 METAR KPOU 281853Z 24009KT 10SM TS FEW110 29/19 A3009 RMK AO2 LTG DSNT SE AND S
                 TSB42 SLP185 T02890194 $ =
2015-05-28 14:48 METAR KPOU 281848Z 24007KT 10SM TS SCT110 29/19 A3009 RMK AO2 LTG DSNT SE AND S
                 TSB42 $ =
2015-05-28 13:53 METAR KPOU 281753Z 22010G17KT 10SM SCT050 29/18 A3009 RMK AO2 SLP185 T02940183
                 10300 20217 58011 =
2015-05-28 12:53 METAR KPOU 281653Z 23010KT 10SM CLR 29/18 A3011 RMK AO2 SLP190 T02890183 =
2015-05-28 11:53 METAR KPOU 281553Z 23009G17KT 10SM CLR 28/19 A3012 RMK AO2 SLP194 T02830194 =
2015-05-28 10:53 METAR KPOU 281453Z 23006KT 10SM FEW021 27/20 A3012 RMK AO2 SLP197 T02670200
                 58002 =
2015-05-28 10:37 METAR KPOU 281437Z 19006KT 10SM SCT020 26/20 A3012 RMK AO2 T02560200 =
2015-05-28 09:53 METAR KPOU 281353Z VRB06KT 10SM BKN016 BKN023 25/19 A3013 =
2015-05-28 09:32 METAR KPOU 281332Z 18008KT 10SM OVC015 24/20 A3013 RMK AO2 T02440200 =
2015-05-28 09:22 METAR KPOU 281322Z VRB05KT 10SM BKN014 24/20 A3013 RMK AO2 T02390200 =
2015-05-28 09:15 METAR KPOU 281315Z 21004KT 10SM BKN016 24/20 A3013 RMK AO2 T02390200 =
2015-05-28 08:53 METAR KPOU 281253Z 18006KT 10SM SCT013 23/20 A3013 RMK AO2 SLP199 T02330200 =
2015-05-28 08:44 METAR KPOU 281244Z 21005KT 10SM FEW013 23/20 A3013 RMK AO2 T02330200 =
2015-05-28 07:53 METAR KPOU 281153Z 00000KT 10SM OVC014 22/20 A3013 RMK AO2 SLP198 70034
                 T02170200 10217 20178 51006 =
2015-05-28 06:53 METAR KPOU 281053Z 00000KT 8SM OVC014 21/19 A3013 RMK AO2 SLP198 T02060194 =
2015-05-28 05:53 METAR KPOU 280953Z 00000KT 9SM OVC014 20/18 A3013 RMK AO2 SLP199 T02000183 =
2015-05-28 05:44 METAR KPOU 280944Z 00000KT 8SM OVC014 19/18 A3013 RMK AO2 T01940183 =
2015-05-28 04:53 METAR KPOU 280853Z 00000KT 6SM BR OVC017 18/17 A3011 RMK AO2 SLP192 T01830172
                 51001 =
2015-05-28 04:35 METAR KPOU 280835Z 00000KT 5SM BR BKN017 19/18 A3011 RMK AO2 T01890178 =
2015-05-28 04:09 METAR KPOU 280809Z 00000KT 4SM BR SCT018 18/17 A3011 RMK AO2 T01830172 =
2015-05-28 03:53 METAR KPOU 280753Z 00000KT 8SM OVC018 19/18 A3011 RMK AO2 SLP192 T01940178 =
2015-05-28 02:53 METAR KPOU 280653Z 15003KT 9SM BKN017 19/18 A3011 RMK AO2 SLP193 T01890178 =
2015-05-28 01:53 METAR KPOU 280553Z 00000KT 9SM BKN019 18/17 A3011 =
2015-05-28 01:36 METAR KPOU 280536Z 00000KT 2 1/2SM BR BKN020 18/17 A3011 RMK AO2 T01780167 =
2015-05-28 00:53 METAR KPOU 280453Z 00000KT 3SM BR CLR 18/17 A3010 RMK AO2 SLP189 T01830172
                 403000178 =
2015-05-28 00:51 METAR KPOU 280451Z 00000KT 2 1/2SM BR CLR 18/17 A3010 RMK AO2 =
2015-05-28 00:23 METAR KPOU 280423Z 00000KT 5SM BR FEW007 18/18 A3011 RMK AO2 T01830178 =
2015-05-28 00:04 METAR KPOU 280404Z 00000KT 2 1/2SM BR FEW007 18/17 A3011 RMK AO2 T01830172 =
2015-05-27 23:53 METAR KPOU 280353Z 00000KT 8SM CLR 19/18 A3011 RMK AO2 SLP191 T01890183 =
2015-05-27 22:53 METAR KPOU 280253Z 00000KT 10SM CLR 20/18 A3011 RMK AO2 SLP193 60000 T02000183
                 55004 =
2015-05-27 21:53 METAR KPOU 280153Z 00000KT 10SM FEW100 21/19 A3011 RMK AO2 SLP191 T02110189 =
2015-05-27 20:53 METAR KPOU 280053Z AUTO 14004KT 10SM FEW047 FEW060 OVC085 21/19 A3011 RMK AO2
                 RAE2358 SLP191 P0000 T02110189 =
2015-05-27 19:53 METAR KPOU 272353Z AUTO 00000KT 10SM -RA BKN100 22/19 A3013 RMK AO2 LTG DSNT E
                 RAB41 TSE2257 PRESRR SLP197 P0000 60034 T02170194 10300 20211 53011 =
2015-05-27 19:14 METAR KPOU 272314Z 10004KT 10SM CLR 21/19 A3010 RMK AO2 LTG DSNT NE-S TSE2257
                 T02110194 =
2015-05-27 19:03 METAR KPOU 272303Z 10005KT 10SM VCTS CLR 21/19 A3009 RMK AO2 LTG DSNT NE-S
                 TSE2257 T02110194 =
2015-05-27 18:53 METAR KPOU 272253Z 15004KT 10SM TS FEW049 FEW095 SCT120 21/19 A3010 RMK AO2
                 WSHFT 2144 LTG DSNT NE-S RAE38 TSE39B42 SLP188 P0027 T02110189 =
2015-05-27 18:32 METAR KPOU 272232Z VRB03KT 8SM -TSRA SCT047 BKN075 OVC120 21/19 A3009 RMK AO2
                 WSHFT 2144 LTG DSNT ALQDS P0027 T02110189 =
2015-05-27 18:23 METAR KPOU 272223Z 19004KT 2 1/2SM +TSRA BR SCT046 BKN080 OVC095 21/19 A3009 RMK
                 AO2 WSHFT 2144 LTG DSNT ALQDS P0026 T02110189 =

Support USWX by starting your Amazon purchase here.